Time;durP1;ratioP1;P1;durP2;ratioP2;P2;SDS_P1;SDS_P2;PMS_P1;PMS_P2;Temp;Humidity;BMP_temperature;BMP_pressure;BME280_temperature;BME280_humidity;BME280_pressure;Samples;Min_cycle;Max_cycle;Signal;HPM_P1;HPM_P2
2022/10/19 00:01:46;;;;;;;9.50;1.63;;;10.10;99.90;;;;;;5003013;28;20228;-78
2022/10/19 00:04:14;;;;;;;3.40;0.90;;;10.10;99.90;;;;;;4997279;28;20270;-77
2022/10/19 00:06:41;;;;;;;5.80;1.30;;;10.10;99.90;;;;;;5005818;28;20265;-77
2022/10/19 00:09:11;;;;;;;6.43;1.60;;;10.10;99.90;;;;;;4996990;28;20232;-77
2022/10/19 00:11:40;;;;;;;10.77;1.30;;;10.20;99.90;;;;;;5000159;28;20236;-77
2022/10/19 00:14:08;;;;;;;3.47;1.20;;;10.20;99.90;;;;;;5002213;28;20251;-78
2022/10/19 00:16:37;;;;;;;3.77;1.13;;;10.20;99.90;;;;;;5000271;28;20727;-77
2022/10/19 00:19:07;;;;;;;6.47;1.43;;;10.20;99.90;;;;;;5008474;28;20234;-77
2022/10/19 00:21:36;;;;;;;5.50;1.33;;;10.20;99.90;;;;;;5017579;28;20250;-77
2022/10/19 00:24:03;;;;;;;11.47;1.60;;;10.30;99.90;;;;;;5001475;28;20232;-77
2022/10/19 00:26:30;;;;;;;5.07;1.40;;;10.30;99.90;;;;;;4996905;28;20894;-77
2022/10/19 00:28:57;;;;;;;7.43;1.53;;;10.30;99.90;;;;;;5001773;28;20644;-77
2022/10/19 00:31:27;;;;;;;4.50;1.10;;;10.30;99.90;;;;;;4996611;28;20231;-77
2022/10/19 00:33:56;;;;;;;4.40;1.00;;;10.40;99.90;;;;;;5003048;28;20251;-78
2022/10/19 00:36:25;;;;;;;5.20;1.30;;;10.40;99.90;;;;;;4997545;28;20213;-77
2022/10/19 00:38:54;;;;;;;6.57;1.23;;;10.40;99.90;;;;;;4999229;28;20236;-78
2022/10/19 00:41:22;;;;;;;5.40;1.10;;;10.40;99.90;;;;;;4998541;28;20744;-77
2022/10/19 00:43:56;;;;;;;5.93;1.23;;;10.40;99.90;;;;;;4996277;28;20223;-77
2022/10/19 00:46:23;;;;;;;7.50;1.13;;;10.50;99.90;;;;;;4999366;28;20229;-77
2022/10/19 00:48:54;;;;;;;5.03;1.50;;;10.50;99.90;;;;;;4999304;28;20265;-77
2022/10/19 00:51:21;;;;;;;5.40;1.40;;;10.50;99.90;;;;;;5002396;28;20274;-77
2022/10/19 00:53:48;;;;;;;11.33;1.53;;;10.50;99.90;;;;;;4996933;28;20230;-77
2022/10/19 00:56:17;;;;;;;4.57;1.10;;;10.50;99.90;;;;;;4997102;28;20308;-77
2022/10/19 00:58:44;;;;;;;4.17;1.03;;;10.60;99.90;;;;;;4998691;28;20818;-77
2022/10/19 01:01:15;;;;;;;12.13;1.63;;;10.60;99.90;;;;;;5012581;28;20257;-77
2022/10/19 01:03:42;;;;;;;5.63;1.13;;;10.60;99.90;;;;;;5000216;28;20255;-77
2022/10/19 01:06:11;;;;;;;3.80;1.07;;;10.60;99.90;;;;;;5001577;28;20583;-77
2022/10/19 01:08:38;;;;;;;4.37;1.20;;;10.60;99.90;;;;;;4995664;28;20233;-77
2022/10/19 01:11:23;;;;;;;6.07;1.10;;;10.60;99.90;;;;;;4999736;28;20607;-77
2022/10/19 01:14:01;;;;;;;8.43;1.37;;;10.60;99.90;;;;;;4991903;28;20222;-77
2022/10/19 01:16:34;;;;;;;5.67;1.30;;;10.70;99.90;;;;;;5004835;28;20224;-77
2022/10/19 01:19:14;;;;;;;6.80;1.33;;;10.60;99.90;;;;;;5009799;28;20233;-77
2022/10/19 01:21:45;;;;;;;3.67;1.03;;;10.70;99.90;;;;;;4998708;28;20218;-78
2022/10/19 01:24:37;;;;;;;6.37;1.10;;;10.70;99.90;;;;;;5004562;28;20613;-77
2022/10/19 01:27:36;;;;;;;6.73;1.00;;;10.70;99.90;;;;;;4992998;28;20263;-77
2022/10/19 01:30:12;;;;;;;6.07;1.30;;;10.70;99.90;;;;;;4999718;28;20231;-77
2022/10/19 01:33:01;;;;;;;4.50;1.20;;;10.70;99.90;;;;;;5011995;28;20246;-77
2022/10/19 01:35:35;;;;;;;2.93;0.90;;;10.70;99.90;;;;;;5008486;28;20312;-77
2022/10/19 01:38:13;;;;;;;5.53;1.03;;;10.70;99.90;;;;;;4992627;28;20316;-77
2022/10/19 01:40:44;;;;;;;4.67;1.00;;;10.70;99.90;;;;;;5000628;28;20850;-77
2022/10/19 01:43:17;;;;;;;4.03;1.00;;;10.70;99.90;;;;;;4997787;28;20230;-77
2022/10/19 01:45:50;;;;;;;5.53;0.97;;;10.70;99.90;;;;;;5002548;28;20239;-78
2022/10/19 01:48:20;;;;;;;5.63;1.40;;;10.70;99.90;;;;;;5002010;28;20312;-78
2022/10/19 01:50:52;;;;;;;5.13;1.03;;;10.70;99.90;;;;;;5011914;28;20374;-77
2022/10/19 01:53:20;;;;;;;6.97;1.10;;;10.70;99.90;;;;;;4992090;28;20237;-77
2022/10/19 01:55:50;;;;;;;6.87;1.30;;;10.70;99.90;;;;;;4999652;28;20227;-78
2022/10/19 01:58:23;;;;;;;4.87;1.27;;;10.70;99.90;;;;;;4997711;28;20224;-77
2022/10/19 02:00:53;;;;;;;3.43;0.70;;;10.70;99.90;;;;;;5000405;28;20225;-77
2022/10/19 02:03:20;;;;;;;6.27;0.90;;;10.70;99.90;;;;;;4996251;28;20630;-78
2022/10/19 02:05:49;;;;;;;9.43;1.00;;;10.70;99.90;;;;;;4999873;28;20845;-77
2022/10/19 02:08:22;;;;;;;7.10;1.10;;;10.70;99.90;;;;;;4999884;28;20227;-78
2022/10/19 02:10:49;;;;;;;7.07;1.27;;;10.70;99.90;;;;;;4996804;28;20237;-77
2022/10/19 02:13:17;;;;;;;7.43;1.30;;;10.70;99.90;;;;;;4992295;28;20232;-78
2022/10/19 02:15:48;;;;;;;4.73;1.27;;;10.60;99.90;;;;;;5004728;28;20330;-77
2022/10/19 02:18:21;;;;;;;4.33;1.07;;;10.60;99.90;;;;;;4997257;28;20224;-77
2022/10/19 02:20:48;;;;;;;4.30;1.00;;;10.60;99.90;;;;;;5008317;28;20284;-77
2022/10/19 02:23:19;;;;;;;4.40;1.00;;;10.60;99.90;;;;;;5000460;28;20226;-77
2022/10/19 02:25:45;;;;;;;5.30;1.07;;;10.60;99.90;;;;;;4999220;28;20239;-77
2022/10/19 02:28:13;;;;;;;4.80;1.07;;;10.60;99.90;;;;;;4999472;28;20228;-78
2022/10/19 02:30:41;;;;;;;5.20;1.20;;;10.50;99.90;;;;;;5013789;28;20236;-78
2022/10/19 02:33:08;;;;;;;5.70;1.10;;;10.50;99.90;;;;;;4990543;28;20729;-78
2022/10/19 02:35:36;;;;;;;10.70;1.40;;;10.50;99.90;;;;;;4995782;28;20258;-78
2022/10/19 02:38:04;;;;;;;7.73;1.13;;;10.40;99.90;;;;;;4996199;28;20242;-77
2022/10/19 02:40:35;;;;;;;6.53;1.30;;;10.40;99.90;;;;;;5013408;28;20235;-77
2022/10/19 02:43:06;;;;;;;7.20;1.20;;;10.40;99.90;;;;;;5002335;28;20222;-77
2022/10/19 02:45:37;;;;;;;4.90;1.40;;;10.40;99.90;;;;;;5003783;28;20223;-77
2022/10/19 02:48:08;;;;;;;6.67;1.20;;;10.30;99.90;;;;;;4998922;28;20229;-77
2022/10/19 02:50:36;;;;;;;3.47;0.93;;;10.30;99.90;;;;;;5001816;28;20247;-77
2022/10/19 02:53:03;;;;;;;6.13;1.20;;;10.30;99.90;;;;;;4994539;28;20232;-78
2022/10/19 02:55:30;;;;;;;4.53;1.30;;;10.30;99.90;;;;;;4992604;28;20318;-77
2022/10/19 02:57:57;;;;;;;5.63;1.13;;;10.30;99.90;;;;;;4997490;28;20223;-77
2022/10/19 03:00:23;;;;;;;3.63;1.10;;;10.30;99.90;;;;;;4999558;28;20322;-79
2022/10/19 03:02:51;;;;;;;5.53;1.23;;;10.30;99.90;;;;;;4993638;28;20236;-78
2022/10/19 03:05:18;;;;;;;5.97;1.70;;;10.30;99.90;;;;;;5002052;28;20232;-78
2022/10/19 03:07:46;;;;;;;3.93;0.93;;;10.30;99.90;;;;;;5003224;28;20253;-78
2022/10/19 03:10:12;;;;;;;5.80;1.37;;;10.30;99.90;;;;;;5001103;28;20332;-78
2022/10/19 03:12:39;;;;;;;5.83;1.10;;;10.30;99.90;;;;;;4995432;28;20216;-78
2022/10/19 03:15:07;;;;;;;6.23;1.40;;;10.30;99.90;;;;;;4995297;28;20227;-78
2022/10/19 03:17:34;;;;;;;4.03;1.23;;;10.30;99.90;;;;;;4998450;28;20232;-78
2022/10/19 03:20:04;;;;;;;6.67;1.30;;;10.40;99.90;;;;;;4996840;28;20224;-78
2022/10/19 03:22:31;;;;;;;5.73;1.40;;;10.40;99.90;;;;;;4995544;28;20225;-78
2022/10/19 03:25:00;;;;;;;3.83;1.03;;;10.40;99.90;;;;;;5014175;28;20225;-78
2022/10/19 03:27:27;;;;;;;6.63;1.07;;;10.40;99.90;;;;;;5010399;28;20334;-79
2022/10/19 03:29:54;;;;;;;6.83;1.40;;;10.40;99.90;;;;;;5002655;28;20231;-78
2022/10/19 03:32:21;;;;;;;6.13;1.10;;;10.40;99.90;;;;;;5000595;28;20324;-78
2022/10/19 03:34:48;;;;;;;6.57;1.27;;;10.40;99.90;;;;;;5001163;28;20226;-77
2022/10/19 03:37:14;;;;;;;5.83;1.17;;;10.40;99.90;;;;;;5000722;28;20232;-78
2022/10/19 03:39:41;;;;;;;6.40;1.83;;;10.40;99.90;;;;;;5011685;28;20620;-78
2022/10/19 03:42:09;;;;;;;5.57;1.00;;;10.40;99.90;;;;;;4993966;28;20220;-77
2022/10/19 03:44:36;;;;;;;7.37;1.50;;;10.40;99.90;;;;;;4996911;28;20223;-78
2022/10/19 03:47:02;;;;;;;5.47;1.10;;;10.40;99.90;;;;;;5010256;28;22216;-77
2022/10/19 03:49:29;;;;;;;4.67;1.00;;;10.40;99.90;;;;;;4999069;28;20234;-77
2022/10/19 03:51:56;;;;;;;7.13;1.80;;;10.40;99.90;;;;;;4996785;28;20229;-77
2022/10/19 03:54:23;;;;;;;4.10;1.23;;;10.40;99.90;;;;;;5011714;28;20211;-78
2022/10/19 03:56:49;;;;;;;5.13;0.90;;;10.40;99.90;;;;;;4999842;28;20216;-78
2022/10/19 03:59:17;;;;;;;8.73;1.10;;;10.40;99.90;;;;;;4994144;28;20251;-78
2022/10/19 04:01:46;;;;;;;5.70;1.17;;;10.40;99.90;;;;;;4981331;28;20237;-78
2022/10/19 04:04:15;;;;;;;6.50;1.20;;;10.40;99.90;;;;;;4990988;28;20242;-78
2022/10/19 04:06:44;;;;;;;6.93;0.90;;;10.30;99.90;;;;;;4994057;28;20244;-78
2022/10/19 04:09:13;;;;;;;4.33;1.03;;;10.40;99.90;;;;;;5003630;28;20233;-79
2022/10/19 04:11:39;;;;;;;4.73;1.20;;;10.40;99.90;;;;;;4993924;28;20307;-78
2022/10/19 04:14:07;;;;;;;6.87;1.50;;;10.30;99.90;;;;;;4993500;28;20747;-78
2022/10/19 04:16:35;;;;;;;6.33;1.00;;;10.30;99.90;;;;;;4998605;28;20245;-78
2022/10/19 04:19:01;;;;;;;4.60;1.10;;;10.30;99.90;;;;;;4997694;28;20225;-77
2022/10/19 04:21:30;;;;;;;3.73;1.27;;;10.30;99.90;;;;;;5013466;28;20232;-77
2022/10/19 04:24:00;;;;;;;7.13;1.33;;;10.30;99.90;;;;;;4995047;28;20287;-79
2022/10/19 04:26:27;;;;;;;8.10;1.57;;;10.30;99.90;;;;;;4999718;28;20234;-79
2022/10/19 04:28:53;;;;;;;5.60;1.57;;;10.30;99.90;;;;;;4999963;28;20746;-80
2022/10/19 04:31:20;;;;;;;5.33;1.43;;;10.30;99.90;;;;;;4994255;28;20223;-80
2022/10/19 04:33:48;;;;;;;5.37;1.40;;;10.30;99.90;;;;;;4990869;28;20286;-79
2022/10/19 04:36:15;;;;;;;5.63;1.10;;;10.30;99.90;;;;;;4997924;28;20642;-80
2022/10/19 04:38:42;;;;;;;9.10;2.47;;;10.30;99.90;;;;;;5000223;28;20624;-80
2022/10/19 04:41:10;;;;;;;3.83;1.10;;;10.30;99.90;;;;;;5005018;28;20226;-81
2022/10/19 04:43:38;;;;;;;4.23;1.17;;;10.30;99.90;;;;;;4996710;28;20236;-79
2022/10/19 04:46:06;;;;;;;6.17;1.30;;;10.30;99.90;;;;;;4996922;28;20248;-80
2022/10/19 04:48:35;;;;;;;5.83;1.07;;;10.40;99.90;;;;;;4998585;28;20250;-80
2022/10/19 04:51:04;;;;;;;3.50;1.23;;;10.40;99.90;;;;;;5002036;28;20228;-79
2022/10/19 04:53:30;;;;;;;6.50;1.33;;;10.40;99.90;;;;;;4992191;28;20220;-79
2022/10/19 04:55:57;;;;;;;8.30;1.20;;;10.40;99.90;;;;;;4999465;28;20312;-79
2022/10/19 04:58:24;;;;;;;5.43;1.20;;;10.40;99.90;;;;;;4997098;28;20232;-79
2022/10/19 05:00:51;;;;;;;8.03;1.43;;;10.40;99.90;;;;;;5002307;28;20306;-80
2022/10/19 05:03:18;;;;;;;4.80;1.30;;;10.40;99.90;;;;;;4995244;28;20227;-79
2022/10/19 05:05:44;;;;;;;6.67;1.30;;;10.40;99.90;;;;;;5012700;28;20242;-81
2022/10/19 05:08:12;;;;;;;5.33;1.33;;;10.40;99.90;;;;;;4998438;28;20231;-79
2022/10/19 05:10:39;;;;;;;7.47;1.40;;;10.40;99.90;;;;;;5006324;28;20224;-80
2022/10/19 05:13:06;;;;;;;7.10;1.77;;;10.40;99.90;;;;;;4994021;28;20233;-80
2022/10/19 05:15:33;;;;;;;4.57;1.40;;;10.40;99.90;;;;;;5015554;28;20329;-80
2022/10/19 05:18:00;;;;;;;5.70;0.90;;;10.40;99.90;;;;;;4996269;28;20346;-79
2022/10/19 05:20:27;;;;;;;6.93;1.70;;;10.40;99.90;;;;;;4994542;28;20233;-79
2022/10/19 05:22:53;;;;;;;7.73;1.60;;;10.40;99.90;;;;;;4993247;28;20269;-78
2022/10/19 05:25:21;;;;;;;2.83;1.40;;;10.40;99.90;;;;;;5000791;28;20241;-79
2022/10/19 05:27:51;;;;;;;6.40;1.33;;;10.40;99.90;;;;;;4999785;28;20286;-81
2022/10/19 05:30:18;;;;;;;5.40;1.53;;;10.40;99.90;;;;;;5003822;28;20613;-79
2022/10/19 05:32:44;;;;;;;4.53;1.20;;;10.40;99.90;;;;;;4999132;28;20319;-79
2022/10/19 05:35:11;;;;;;;7.27;1.37;;;10.40;99.90;;;;;;4996659;28;20235;-79
2022/10/19 05:37:38;;;;;;;7.27;1.40;;;10.40;99.90;;;;;;4995587;28;20232;-80
2022/10/19 05:40:06;;;;;;;8.80;1.57;;;10.40;99.90;;;;;;5000342;28;20825;-80
2022/10/19 05:42:34;;;;;;;7.03;1.60;;;10.40;99.90;;;;;;4980669;28;20714;-79
2022/10/19 05:45:04;;;;;;;7.20;1.40;;;10.40;99.90;;;;;;4999828;28;20225;-79
2022/10/19 05:47:32;;;;;;;6.50;1.53;;;10.40;99.90;;;;;;4997195;28;20229;-80
2022/10/19 05:49:58;;;;;;;8.40;1.40;;;10.40;99.90;;;;;;4995681;28;20706;-80
2022/10/19 05:52:25;;;;;;;6.17;1.40;;;10.40;99.90;;;;;;4989230;28;20248;-79
2022/10/19 05:54:52;;;;;;;5.80;1.30;;;10.40;99.90;;;;;;4984558;28;20233;-80
2022/10/19 05:57:19;;;;;;;10.70;1.63;;;10.40;99.90;;;;;;4993860;28;20678;-79
2022/10/19 05:59:47;;;;;;;12.53;1.90;;;10.40;99.90;;;;;;4998382;28;20237;-79
2022/10/19 06:02:14;;;;;;;5.50;1.50;;;10.40;99.90;;;;;;4988845;28;20223;-79
2022/10/19 06:04:41;;;;;;;6.03;1.83;;;10.40;99.90;;;;;;5011384;28;20755;-80
2022/10/19 06:07:07;;;;;;;6.80;1.60;;;10.40;99.90;;;;;;4990989;28;20716;-79
2022/10/19 06:09:35;;;;;;;5.23;1.43;;;10.30;99.90;;;;;;4999843;28;20242;-80
2022/10/19 06:12:03;;;;;;;4.43;1.20;;;10.40;99.90;;;;;;5003517;28;20223;-79
2022/10/19 06:14:30;;;;;;;7.23;1.80;;;10.40;99.90;;;;;;4996912;28;20736;-79
2022/10/19 06:16:57;;;;;;;7.27;1.70;;;10.40;99.90;;;;;;4995719;28;20227;-81
2022/10/19 06:19:24;;;;;;;9.03;1.70;;;10.40;99.90;;;;;;4998030;28;20581;-80
2022/10/19 06:21:51;;;;;;;4.43;1.60;;;10.40;99.90;;;;;;5001322;28;20239;-80
2022/10/19 06:24:17;;;;;;;6.30;1.57;;;10.30;99.90;;;;;;5014991;28;20215;-79
2022/10/19 06:26:44;;;;;;;6.53;1.70;;;10.30;99.90;;;;;;4999747;28;20232;-80
2022/10/19 06:29:13;;;;;;;6.60;1.80;;;10.30;99.90;;;;;;4996587;28;20222;-80
2022/10/19 06:31:40;;;;;;;7.23;1.43;;;10.30;99.90;;;;;;4999943;28;20236;-79
2022/10/19 06:34:08;;;;;;;8.63;2.47;;;10.20;99.90;;;;;;4994347;28;20320;-80
2022/10/19 06:36:35;;;;;;;8.20;1.70;;;10.10;99.90;;;;;;4995516;28;20300;-80
2022/10/19 06:39:01;;;;;;;9.60;1.70;;;10.10;99.90;;;;;;4996164;28;20627;-79
2022/10/19 06:41:29;;;;;;;10.07;2.03;;;10.00;99.90;;;;;;5000520;28;20224;-81
2022/10/19 06:44:00;;;;;;;6.00;2.13;;;9.90;99.90;;;;;;4997774;28;20222;-82
2022/10/19 06:46:27;;;;;;;11.23;1.93;;;9.90;99.90;;;;;;5002836;28;20265;-82
2022/10/19 06:48:56;;;;;;;10.40;1.70;;;9.80;99.90;;;;;;4999493;28;20285;-81
2022/10/19 06:51:25;;;;;;;7.97;1.83;;;9.80;99.90;;;;;;5001031;28;20227;-80
2022/10/19 06:53:52;;;;;;;10.67;2.00;;;9.70;99.90;;;;;;4990688;28;20244;-80
2022/10/19 06:56:19;;;;;;;11.17;2.10;;;9.70;99.90;;;;;;4994407;28;20581;-79
2022/10/19 06:58:46;;;;;;;7.90;1.90;;;9.70;99.90;;;;;;5012249;28;20232;-81
2022/10/19 07:01:14;;;;;;;7.07;1.93;;;9.60;99.90;;;;;;5002143;28;20705;-80
2022/10/19 07:03:42;;;;;;;7.43;1.90;;;9.60;99.90;;;;;;4997280;28;20821;-80
2022/10/19 07:06:10;;;;;;;8.70;1.97;;;9.60;99.90;;;;;;5009575;28;20894;-79
2022/10/19 07:08:40;;;;;;;9.53;1.80;;;9.60;99.90;;;;;;5000078;28;20235;-80
2022/10/19 07:11:09;;;;;;;10.20;2.20;;;9.60;99.90;;;;;;5000609;28;20333;-80
2022/10/19 07:13:36;;;;;;;11.90;2.43;;;9.70;99.90;;;;;;4994192;28;20899;-80
2022/10/19 07:16:05;;;;;;;9.50;2.60;;;9.70;99.90;;;;;;4996847;28;20227;-80
2022/10/19 07:18:33;;;;;;;10.43;2.33;;;9.70;99.90;;;;;;4999416;28;20311;-80
2022/10/19 07:21:05;;;;;;;11.07;2.57;;;9.70;99.90;;;;;;4993575;28;20223;-80
2022/10/19 07:23:34;;;;;;;12.57;2.50;;;9.80;99.90;;;;;;4993228;28;20234;-79
2022/10/19 07:26:06;;;;;;;11.97;2.30;;;9.80;99.90;;;;;;4998948;28;20568;-80
2022/10/19 07:28:36;;;;;;;9.30;2.47;;;9.90;99.90;;;;;;4989691;28;20762;-79
2022/10/19 07:31:09;;;;;;;13.47;2.30;;;9.90;99.90;;;;;;4996469;28;20909;-79
2022/10/19 07:33:36;;;;;;;13.63;2.87;;;10.00;99.90;;;;;;4995212;28;20651;-79
2022/10/19 07:36:05;;;;;;;11.33;2.20;;;10.00;99.90;;;;;;4999313;28;20224;-79
2022/10/19 07:38:33;;;;;;;9.93;2.40;;;10.10;99.90;;;;;;4999900;28;20225;-80
2022/10/19 07:41:04;;;;;;;13.70;2.63;;;10.10;99.90;;;;;;5001523;28;20225;-79
2022/10/19 07:43:32;;;;;;;6.90;2.03;;;10.10;99.90;;;;;;4995864;28;20916;-80
2022/10/19 07:46:00;;;;;;;14.73;2.07;;;10.10;99.90;;;;;;4991214;28;20298;-79
2022/10/19 07:48:28;;;;;;;8.93;2.30;;;10.10;99.90;;;;;;5004736;28;20877;-79
2022/10/19 07:50:55;;;;;;;10.50;2.20;;;10.20;99.90;;;;;;4997487;28;20227;-80
2022/10/19 07:53:22;;;;;;;8.73;1.73;;;10.30;99.90;;;;;;4985208;28;20226;-79
2022/10/19 07:55:49;;;;;;;10.73;2.37;;;10.30;99.90;;;;;;4998600;28;20629;-79
2022/10/19 07:58:15;;;;;;;11.77;2.37;;;10.40;99.90;;;;;;4996652;28;20482;-79
2022/10/19 08:00:43;;;;;;;10.57;1.83;;;10.40;99.90;;;;;;4993295;28;20323;-80
2022/10/19 08:03:10;;;;;;;8.47;2.30;;;10.40;99.90;;;;;;4987930;28;20251;-79
2022/10/19 08:05:37;;;;;;;13.30;2.00;;;10.50;99.90;;;;;;4990470;28;20320;-80
2022/10/19 08:08:04;;;;;;;6.83;2.10;;;10.60;99.90;;;;;;4997890;28;20221;-80
2022/10/19 08:10:32;;;;;;;9.13;2.13;;;10.60;99.90;;;;;;5017565;28;20244;-79
2022/10/19 08:12:59;;;;;;;12.30;2.40;;;10.70;99.90;;;;;;4997176;28;20235;-79
2022/10/19 08:15:27;;;;;;;7.97;1.97;;;10.70;99.90;;;;;;4997578;28;20225;-79
2022/10/19 08:17:55;;;;;;;12.33;2.50;;;10.80;99.90;;;;;;5019022;28;20222;-80
2022/10/19 08:20:22;;;;;;;7.60;1.90;;;10.80;99.90;;;;;;4998254;28;20243;-80
2022/10/19 08:22:49;;;;;;;6.37;1.47;;;10.90;99.90;;;;;;4995278;28;20234;-80
2022/10/19 08:25:15;;;;;;;8.03;2.20;;;11.00;99.90;;;;;;4999452;28;20233;-80
2022/10/19 08:27:42;;;;;;;7.10;1.57;;;11.20;99.90;;;;;;5005592;28;20353;-80
2022/10/19 08:30:09;;;;;;;8.80;1.80;;;11.40;99.90;;;;;;4997422;28;20309;-80
2022/10/19 08:32:36;;;;;;;7.53;1.70;;;11.60;99.90;;;;;;5002648;28;20261;-79
2022/10/19 08:35:05;;;;;;;5.90;1.87;;;12.00;99.90;;;;;;5003025;28;20227;-79
2022/10/19 08:37:33;;;;;;;7.43;2.00;;;12.40;99.90;;;;;;5000616;28;20221;-80
2022/10/19 08:39:59;;;;;;;7.70;2.23;;;12.90;99.90;;;;;;4997158;28;20350;-80
2022/10/19 08:42:33;;;;;;;13.93;2.10;;;13.40;99.90;;;;;;5001058;28;20222;-80
2022/10/19 08:45:19;;;;;;;9.10;2.30;;;14.00;99.90;;;;;;5001601;28;20220;-79
2022/10/19 08:47:58;;;;;;;10.30;2.67;;;14.40;99.90;;;;;;5002618;28;20329;-79
2022/10/19 08:50:34;;;;;;;9.63;2.60;;;14.80;99.90;;;;;;4995100;28;20235;-80
2022/10/19 08:53:05;;;;;;;9.43;2.33;;;15.00;99.90;;;;;;5008414;28;20356;-80
2022/10/19 08:55:41;;;;;;;11.70;2.43;;;15.10;99.90;;;;;;5003611;28;20251;-80
2022/10/19 08:58:21;;;;;;;8.83;1.93;;;15.10;99.90;;;;;;5014873;28;20918;-80
2022/10/19 09:00:56;;;;;;;8.07;1.87;;;15.10;99.90;;;;;;5002182;28;20231;-80
2022/10/19 09:03:25;;;;;;;8.53;2.13;;;15.20;99.90;;;;;;5014301;28;20229;-79
2022/10/19 09:06:03;;;;;;;11.90;1.87;;;15.30;99.90;;;;;;4995176;28;20227;-80
2022/10/19 09:08:30;;;;;;;10.17;2.30;;;15.40;99.90;;;;;;4999500;28;20231;-80
2022/10/19 09:10:57;;;;;;;6.70;1.80;;;15.40;99.90;;;;;;5003719;28;20299;-80
2022/10/19 09:13:34;;;;;;;9.07;2.30;;;15.40;99.90;;;;;;5014573;28;20368;-80
2022/10/19 09:16:02;;;;;;;7.83;1.60;;;15.20;99.90;;;;;;4996368;28;20218;-79
2022/10/19 09:18:31;;;;;;;5.97;1.80;;;15.10;99.90;;;;;;5003658;28;20259;-79
2022/10/19 09:21:04;;;;;;;6.37;1.50;;;15.00;99.90;;;;;;5002685;28;20384;-80
2022/10/19 09:23:37;;;;;;;9.77;2.30;;;14.80;99.90;;;;;;4997158;28;20230;-80
2022/10/19 09:26:11;;;;;;;5.60;1.80;;;14.70;99.90;;;;;;4997265;28;20235;-79
2022/10/19 09:28:47;;;;;;;6.77;1.70;;;14.70;99.90;;;;;;5019007;28;20705;-81
2022/10/19 09:31:21;;;;;;;5.87;1.63;;;14.70;99.90;;;;;;4997914;28;20933;-80
2022/10/19 09:33:51;;;;;;;7.83;2.60;;;14.60;99.90;;;;;;4998953;28;20596;-79
2022/10/19 09:36:20;;;;;;;7.57;2.00;;;14.50;99.90;;;;;;5000779;28;20216;-81
2022/10/19 09:38:49;;;;;;;6.57;1.50;;;14.50;99.90;;;;;;5001564;28;20816;-80
2022/10/19 09:41:18;;;;;;;6.83;1.60;;;14.60;99.90;;;;;;5001575;28;20219;-79
2022/10/19 09:43:52;;;;;;;9.70;1.83;;;14.90;99.90;;;;;;5001927;28;20235;-80
2022/10/19 09:46:39;;;;;;;6.50;1.50;;;15.30;99.90;;;;;;5001785;28;20247;-80
2022/10/19 09:49:06;;;;;;;4.57;1.50;;;15.90;99.90;;;;;;5001524;28;20232;-80
2022/10/19 09:51:45;;;;;;;4.50;1.67;;;16.40;99.90;;;;;;5004439;28;20236;-81
2022/10/19 09:54:25;;;;;;;8.07;1.60;;;17.00;99.90;;;;;;4992436;28;20225;-80
2022/10/19 09:56:56;;;;;;;5.57;1.73;;;17.60;99.90;;;;;;5014290;28;20264;-80
2022/10/19 09:59:28;;;;;;;6.77;1.50;;;18.30;99.90;;;;;;4993409;28;20323;-79
2022/10/19 10:02:15;;;;;;;5.40;1.57;;;18.70;99.50;;;;;;5017496;28;20256;-80
2022/10/19 10:04:54;;;;;;;5.97;1.40;;;18.90;98.70;;;;;;4997393;28;20324;-80
2022/10/19 10:07:28;;;;;;;6.70;1.60;;;19.10;98.60;;;;;;5002330;28;20587;-80
2022/10/19 10:09:55;;;;;;;4.60;1.70;;;19.40;98.30;;;;;;5002920;28;20229;-80
2022/10/19 10:12:23;;;;;;;8.23;1.80;;;19.70;98.50;;;;;;5003750;28;20229;-80
2022/10/19 10:14:51;;;;;;;4.00;1.73;;;20.00;97.90;;;;;;5000486;28;20223;-80
2022/10/19 10:17:21;;;;;;;4.33;1.83;;;20.30;97.40;;;;;;5002533;28;20295;-80
2022/10/19 10:20:03;;;;;;;7.33;1.93;;;20.50;96.30;;;;;;4997129;28;20714;-80
2022/10/19 10:22:34;;;;;;;5.03;1.50;;;20.60;95.70;;;;;;4995845;28;20674;-80
2022/10/19 10:25:01;;;;;;;5.20;1.83;;;20.70;95.20;;;;;;4987015;28;20227;-80
2022/10/19 10:27:31;;;;;;;4.68;1.67;;;20.70;95.20;;;;;;4997439;28;20233;-80
2022/10/19 10:29:58;;;;;;;4.87;1.80;;;20.70;94.80;;;;;;4995792;28;20229;-80
2022/10/19 10:32:27;;;;;;;4.63;1.83;;;20.70;94.80;;;;;;4989014;28;20225;-80
2022/10/19 10:35:01;;;;;;;7.97;1.77;;;20.50;94.10;;;;;;5007798;28;20361;-80
2022/10/19 10:37:30;;;;;;;6.77;1.47;;;20.20;93.10;;;;;;4998112;28;20228;-80
2022/10/19 10:39:59;;;;;;;6.73;1.87;;;19.90;93.40;;;;;;4997620;28;20330;-80
2022/10/19 10:42:30;;;;;;;3.83;1.30;;;19.50;93.60;;;;;;4999191;28;20853;-80
2022/10/19 10:44:57;;;;;;;6.00;1.80;;;19.10;93.80;;;;;;4998937;28;20317;-81
2022/10/19 10:47:27;;;;;;;4.20;1.53;;;18.70;94.00;;;;;;4996101;28;20236;-80
2022/10/19 10:49:56;;;;;;;5.77;1.90;;;18.20;94.10;;;;;;4999961;28;20228;-80
2022/10/19 10:52:26;;;;;;;5.03;1.70;;;17.90;94.00;;;;;;5014781;28;20227;-80
2022/10/19 10:55:02;;;;;;;6.97;1.40;;;17.50;94.40;;;;;;5012357;28;20228;-80
2022/10/19 10:57:38;;;;;;;4.40;1.40;;;17.20;95.20;;;;;;4999676;28;20227;-80
2022/10/19 11:00:13;;;;;;;7.40;1.60;;;17.10;96.00;;;;;;4996000;28;20255;-80
2022/10/19 11:02:46;;;;;;;6.43;1.23;;;17.10;95.60;;;;;;4991178;28;20232;-80
2022/10/19 11:05:18;;;;;;;4.80;1.10;;;17.00;95.50;;;;;;4997524;28;20219;-80
2022/10/19 11:07:47;;;;;;;5.83;1.40;;;16.90;95.20;;;;;;4996991;28;20369;-81
2022/10/19 11:10:23;;;;;;;4.03;1.20;;;16.80;95.60;;;;;;4999857;28;20286;-80
2022/10/19 11:12:55;;;;;;;5.37;1.37;;;16.60;95.20;;;;;;4999477;28;20305;-80
2022/10/19 11:15:27;;;;;;;6.37;1.37;;;16.50;95.60;;;;;;4991634;28;20391;-80
2022/10/19 11:18:03;;;;;;;5.70;1.30;;;16.20;95.80;;;;;;4993077;28;20309;-80
2022/10/19 11:20:33;;;;;;;4.63;1.37;;;16.10;95.90;;;;;;4997824;28;20234;-80
2022/10/19 11:23:13;;;;;;;4.37;1.17;;;15.90;95.80;;;;;;5011094;28;20248;-80
2022/10/19 11:25:53;;;;;;;5.40;1.53;;;15.80;96.60;;;;;;5001647;28;20241;-80
2022/10/19 11:28:30;;;;;;;5.30;1.43;;;15.90;97.00;;;;;;5000252;28;20226;-80
2022/10/19 11:31:05;;;;;;;5.73;1.30;;;16.10;97.00;;;;;;4999846;28;20239;-80
2022/10/19 11:33:46;;;;;;;4.97;1.73;;;16.50;97.10;;;;;;4998654;28;20727;-80
2022/10/19 11:36:24;;;;;;;5.40;1.20;;;16.90;95.90;;;;;;4993398;28;20248;-80
2022/10/19 11:39:01;;;;;;;4.67;1.30;;;17.20;96.10;;;;;;4992556;28;20236;-80
2022/10/19 11:41:38;;;;;;;4.13;1.20;;;17.40;95.50;;;;;;4998914;28;20308;-80
2022/10/19 11:44:19;;;;;;;4.50;1.00;;;17.50;95.40;;;;;;5013754;28;20223;-80
2022/10/19 11:46:59;;;;;;;4.40;1.20;;;17.50;95.30;;;;;;5001195;28;20241;-79
2022/10/19 11:49:37;;;;;;;3.60;1.20;;;17.50;95.10;;;;;;4994581;28;20225;-80
2022/10/19 11:52:12;;;;;;;5.50;1.10;;;17.40;94.90;;;;;;4997966;28;20239;-80
2022/10/19 11:54:53;;;;;;;6.20;1.20;;;17.40;94.60;;;;;;4989366;28;20235;-80
2022/10/19 11:57:25;;;;;;;3.20;1.20;;;17.30;94.60;;;;;;5000450;28;20230;-80
2022/10/19 12:00:06;;;;;;;4.47;1.37;;;17.40;94.90;;;;;;5004588;28;20236;-80
2022/10/19 12:03:10;;;;;;;2.87;1.20;;;17.50;95.10;;;;;;5004425;28;20236;-80
2022/10/19 12:05:48;;;;;;;6.47;1.20;;;17.70;94.90;;;;;;4963883;28;20231;-80
2022/10/19 12:08:31;;;;;;;4.83;1.10;;;17.90;94.70;;;;;;5000155;28;20229;-81
2022/10/19 12:11:07;;;;;;;1.20;0.57;;;17.90;94.00;;;;;;5001995;28;20596;-80
2022/10/19 12:13:40;;;;;;;1.60;0.77;;;17.90;93.70;;;;;;5001921;28;20341;-81
2022/10/19 12:16:11;;;;;;;3.03;1.13;;;17.80;93.20;;;;;;5004594;28;20529;-80
2022/10/19 12:18:42;;;;;;;4.47;0.70;;;17.70;93.60;;;;;;5003317;28;20648;-80
2022/10/19 12:21:13;;;;;;;2.30;0.77;;;17.50;93.40;;;;;;5016998;28;20253;-79
2022/10/19 12:23:46;;;;;;;3.17;0.90;;;17.30;93.20;;;;;;4993641;28;20239;-80
2022/10/19 12:26:16;;;;;;;3.13;0.90;;;17.10;93.00;;;;;;5005369;28;20228;-81
2022/10/19 12:28:49;;;;;;;2.37;0.93;;;17.00;93.50;;;;;;4997969;28;20251;-79
2022/10/19 12:31:17;;;;;;;4.60;0.90;;;16.80;93.30;;;;;;5002182;28;20236;-79
2022/10/19 12:33:49;;;;;;;2.30;0.90;;;16.80;93.70;;;;;;4991341;28;20233;-80
2022/10/19 12:36:26;;;;;;;2.00;0.77;;;16.70;93.80;;;;;;4999032;28;20238;-80
2022/10/19 12:39:03;;;;;;;2.77;1.10;;;16.70;93.90;;;;;;5000028;28;20338;-80
2022/10/19 12:41:38;;;;;;;2.73;0.93;;;16.70;94.30;;;;;;5005294;28;20227;-80
2022/10/19 12:44:21;;;;;;;3.33;1.17;;;16.70;94.30;;;;;;4991763;28;20848;-79
2022/10/19 12:46:53;;;;;;;6.73;0.90;;;16.70;94.30;;;;;;4996529;28;20243;-80
2022/10/19 12:49:54;;;;;;;1.53;0.73;;;16.70;94.10;;;;;;5016460;28;20229;-80
2022/10/19 12:52:36;;;;;;;2.50;0.90;;;16.70;94.60;;;;;;4932972;29;20232;-80
2022/10/19 12:55:33;;;;;;;2.60;1.10;;;16.80;94.30;;;;;;4986015;28;20215;-80
2022/10/19 12:58:06;;;;;;;3.10;1.00;;;16.80;94.00;;;;;;4983610;28;20279;-80
2022/10/19 13:00:36;;;;;;;3.00;0.90;;;16.90;94.40;;;;;;5002200;28;20724;-79
2022/10/19 13:03:07;;;;;;;3.53;1.10;;;17.00;94.00;;;;;;4997976;28;20240;-80